createdAt,value
2023-02-06T00:00:00.836Z,4.14
2023-02-06T00:02:27.170Z,4.24
2023-02-06T00:04:53.442Z,4.03
2023-02-06T00:07:19.720Z,3.67
2023-02-06T00:09:45.965Z,3.86
2023-02-06T00:12:12.247Z,3.78
2023-02-06T00:14:38.583Z,3.76
2023-02-06T00:17:04.872Z,3.92
2023-02-06T00:19:31.121Z,4.20
2023-02-06T00:21:57.397Z,4.29
2023-02-06T00:24:23.650Z,4.10
2023-02-06T00:26:49.924Z,4.53
2023-02-06T00:29:16.178Z,4.40
2023-02-06T00:31:42.505Z,4.27
2023-02-06T00:34:08.821Z,4.38
2023-02-06T00:36:35.053Z,4.63
2023-02-06T00:39:01.310Z,4.55
2023-02-06T00:41:27.559Z,4.57
2023-02-06T00:43:53.849Z,4.80
2023-02-06T00:46:20.166Z,4.81
2023-02-06T00:48:46.423Z,4.78
2023-02-06T00:51:12.699Z,4.59
2023-02-06T00:53:38.995Z,5.04
2023-02-06T00:56:05.433Z,5.23
2023-02-06T00:58:31.816Z,5.00
2023-02-06T01:00:58.086Z,5.23
2023-02-06T01:03:24.349Z,5.38
2023-02-06T01:05:50.651Z,6.34
2023-02-06T01:08:16.961Z,9.28
2023-02-06T01:10:43.204Z,6.90
2023-02-06T01:13:09.453Z,5.58
2023-02-06T01:15:35.986Z,5.95
2023-02-06T01:18:02.417Z,5.58
2023-02-06T01:20:28.679Z,5.45
2023-02-06T01:22:54.925Z,5.59
2023-02-06T01:25:21.179Z,5.46
2023-02-06T01:27:47.459Z,5.71
2023-02-06T01:30:13.728Z,5.60
2023-02-06T01:32:40.022Z,5.62
2023-02-06T01:35:06.266Z,5.02
2023-02-06T01:37:32.527Z,5.09
2023-02-06T01:39:58.782Z,5.03
2023-02-06T01:42:25.037Z,5.36
2023-02-06T01:44:51.297Z,5.31
2023-02-06T01:47:17.572Z,5.65
2023-02-06T01:49:43.837Z,5.62
2023-02-06T01:52:10.109Z,5.63
2023-02-06T01:54:36.361Z,5.98
2023-02-06T01:57:02.628Z,5.88
2023-02-06T01:59:28.881Z,5.88
2023-02-06T02:01:55.169Z,5.31
2023-02-06T02:04:21.458Z,5.42
2023-02-06T02:06:47.720Z,5.34
2023-02-06T02:09:14.415Z,5.31
2023-02-06T02:11:40.714Z,5.13
2023-02-06T02:14:06.990Z,5.31
2023-02-06T02:16:33.353Z,5.87
2023-02-06T02:18:59.620Z,5.51
2023-02-06T02:21:25.890Z,5.84
2023-02-06T02:23:52.165Z,6.07
2023-02-06T02:26:18.450Z,5.84
2023-02-06T02:28:44.725Z,6.05
2023-02-06T02:31:11.000Z,6.32
2023-02-06T02:33:37.269Z,6.58
2023-02-06T02:36:03.528Z,6.61
2023-02-06T02:38:30.882Z,7.03
2023-02-06T02:40:57.148Z,6.64
2023-02-06T02:43:23.413Z,6.69
2023-02-06T02:45:49.724Z,5.96
2023-02-06T02:48:15.978Z,6.27
2023-02-06T02:50:42.237Z,6.39
2023-02-06T02:53:08.493Z,6.79
2023-02-06T02:55:35.186Z,6.54
2023-02-06T02:58:01.705Z,6.27
2023-02-06T03:00:27.957Z,6.12
2023-02-06T03:02:54.228Z,6.20
2023-02-06T03:05:20.495Z,6.41
2023-02-06T03:07:46.751Z,6.47
2023-02-06T03:10:13.020Z,6.02
2023-02-06T03:12:39.288Z,6.30
2023-02-06T03:15:05.555Z,6.28
2023-02-06T03:17:31.823Z,6.66
2023-02-06T03:19:58.085Z,6.35
2023-02-06T03:22:24.336Z,6.68
2023-02-06T03:24:50.596Z,6.84
2023-02-06T03:27:16.866Z,6.67
2023-02-06T03:29:43.102Z,6.46
2023-02-06T03:32:09.346Z,7.01
2023-02-06T03:34:35.610Z,6.93
2023-02-06T03:37:01.873Z,7.08
2023-02-06T03:39:28.115Z,7.03
2023-02-06T03:41:54.366Z,7.11
2023-02-06T03:44:20.619Z,7.36
2023-02-06T03:46:46.854Z,7.41
2023-02-06T03:49:13.097Z,7.60
2023-02-06T03:51:39.381Z,7.63
2023-02-06T03:54:05.654Z,7.48
2023-02-06T03:56:31.897Z,8.07
2023-02-06T03:58:58.161Z,7.81
2023-02-06T04:01:24.446Z,8.05
2023-02-06T04:03:50.706Z,8.45
2023-02-06T04:06:16.948Z,8.28
2023-02-06T04:08:43.189Z,7.82
2023-02-06T04:11:09.430Z,7.82
2023-02-06T04:13:35.688Z,7.77
2023-02-06T04:16:01.933Z,7.82
2023-02-06T04:18:28.181Z,7.58
2023-02-06T04:20:54.463Z,7.50
2023-02-06T04:23:20.721Z,7.59
2023-02-06T04:25:47.081Z,7.39
2023-02-06T04:28:13.357Z,7.57
2023-02-06T04:30:39.688Z,7.40
2023-02-06T04:33:05.945Z,7.83
2023-02-06T04:35:32.200Z,7.86
2023-02-06T04:37:58.466Z,7.70
2023-02-06T04:40:24.731Z,7.50
2023-02-06T04:42:50.974Z,7.78
2023-02-06T04:45:17.226Z,7.95
2023-02-06T04:47:43.483Z,8.05
2023-02-06T04:50:09.760Z,8.30
2023-02-06T04:52:36.004Z,8.38
2023-02-06T04:55:02.247Z,8.80
2023-02-06T04:57:28.518Z,8.70
2023-02-06T04:59:54.792Z,8.84
2023-02-06T05:02:21.100Z,8.37
2023-02-06T05:04:47.358Z,8.69
2023-02-06T05:07:13.610Z,8.34
2023-02-06T05:09:39.848Z,8.58
2023-02-06T05:12:06.134Z,8.41
2023-02-06T05:14:32.390Z,8.58
2023-02-06T05:16:58.651Z,8.20
2023-02-06T05:19:24.933Z,8.41
2023-02-06T05:21:51.183Z,8.30
2023-02-06T05:24:17.439Z,8.21
2023-02-06T05:26:43.706Z,8.26
2023-02-06T05:29:10.078Z,8.75
2023-02-06T05:31:36.446Z,8.64
2023-02-06T05:34:02.807Z,8.25
2023-02-06T05:36:29.258Z,8.50
2023-02-06T05:38:55.572Z,8.44
2023-02-06T05:41:21.830Z,8.72
2023-02-06T05:43:48.077Z,9.30
2023-02-06T05:46:14.412Z,9.37
2023-02-06T05:48:40.799Z,8.46
2023-02-06T05:51:07.088Z,8.27
2023-02-06T05:53:33.368Z,8.49
2023-02-06T05:55:59.645Z,8.09
2023-02-06T05:58:25.953Z,8.56
2023-02-06T06:00:52.254Z,8.33
2023-02-06T06:03:18.551Z,8.33
2023-02-06T06:05:44.789Z,8.90
2023-02-06T06:08:11.117Z,8.82
2023-02-06T06:10:37.379Z,9.07
2023-02-06T06:13:03.718Z,8.66
2023-02-06T06:15:29.987Z,8.56
2023-02-06T06:17:56.257Z,8.47
2023-02-06T06:20:22.509Z,8.66
2023-02-06T06:22:48.826Z,8.83
2023-02-06T06:25:15.119Z,9.25
2023-02-06T06:27:41.387Z,9.35
2023-02-06T06:30:07.634Z,9.07
2023-02-06T06:32:33.885Z,9.09
2023-02-06T06:35:00.158Z,9.29
2023-02-06T06:37:26.403Z,9.30
2023-02-06T06:39:52.651Z,9.20
2023-02-06T06:42:18.914Z,9.37
2023-02-06T06:44:45.186Z,9.31
2023-02-06T06:47:11.441Z,9.71
2023-02-06T06:49:37.708Z,10.36
2023-02-06T06:52:07.043Z,10.80
2023-02-06T06:54:35.204Z,10.83
2023-02-06T06:57:01.481Z,10.63
2023-02-06T06:59:27.768Z,10.73
2023-02-06T07:01:54.021Z,10.59
2023-02-06T07:04:20.263Z,11.02
2023-02-06T07:06:46.523Z,10.82
2023-02-06T07:09:12.790Z,10.88
2023-02-06T07:11:39.036Z,11.25
2023-02-06T07:14:05.299Z,11.04
2023-02-06T07:16:31.607Z,10.88
2023-02-06T07:18:57.907Z,11.21
2023-02-06T07:21:24.165Z,11.29
2023-02-06T07:23:50.404Z,11.55
2023-02-06T07:26:16.764Z,11.03
2023-02-06T07:28:43.042Z,10.51
2023-02-06T07:31:09.294Z,10.93
2023-02-06T07:33:35.567Z,11.54
2023-02-06T07:36:03.840Z,11.12
2023-02-06T07:38:30.481Z,11.27
2023-02-06T07:40:56.746Z,11.38
2023-02-06T07:43:23.029Z,11.54
2023-02-06T07:45:49.298Z,11.21
2023-02-06T07:48:15.588Z,10.81
2023-02-06T07:50:41.856Z,11.43
2023-02-06T07:53:08.112Z,11.70
2023-02-06T07:55:34.454Z,11.99
2023-02-06T07:58:00.829Z,12.18
2023-02-06T08:00:27.104Z,12.98
2023-02-06T08:02:53.377Z,12.96
2023-02-06T08:05:19.664Z,12.83
2023-02-06T08:07:45.925Z,12.80
2023-02-06T08:10:12.213Z,13.30
2023-02-06T08:12:38.476Z,13.57
2023-02-06T08:15:04.838Z,13.74
2023-02-06T08:17:31.102Z,13.79
2023-02-06T08:19:57.372Z,13.59
2023-02-06T08:22:23.637Z,15.23
2023-02-06T08:24:49.900Z,13.72
2023-02-06T08:27:16.188Z,13.44
2023-02-06T08:29:42.469Z,13.49
2023-02-06T08:32:08.871Z,13.37
2023-02-06T08:34:35.118Z,13.24
2023-02-06T08:37:01.407Z,13.19
2023-02-06T08:39:27.718Z,13.60
2023-02-06T08:41:53.982Z,13.12
2023-02-06T08:44:20.249Z,12.88
2023-02-06T08:46:46.510Z,12.75
2023-02-06T08:49:12.786Z,12.11
2023-02-06T08:51:39.062Z,12.72
2023-02-06T08:54:05.328Z,12.51
2023-02-06T08:56:31.632Z,12.07
2023-02-06T08:58:57.902Z,12.52
2023-02-06T09:01:24.232Z,12.65
2023-02-06T09:03:50.508Z,12.50
2023-02-06T09:06:16.788Z,11.99
2023-02-06T09:08:43.075Z,11.47
2023-02-06T09:11:09.355Z,12.03
2023-02-06T09:13:35.606Z,11.79
2023-02-06T09:16:01.914Z,11.78
2023-02-06T09:18:28.209Z,11.88
2023-02-06T09:20:54.470Z,12.41
2023-02-06T09:23:20.734Z,11.81
2023-02-06T09:25:46.999Z,12.22
2023-02-06T09:28:13.299Z,12.27
2023-02-06T09:30:39.627Z,12.02
2023-02-06T09:33:05.938Z,11.68
2023-02-06T09:35:32.236Z,12.40
2023-02-06T09:37:58.528Z,13.00
2023-02-06T09:40:24.805Z,12.63
2023-02-06T09:42:51.062Z,13.92
2023-02-06T09:45:17.317Z,13.01
2023-02-06T09:47:45.182Z,13.28
2023-02-06T09:50:12.682Z,13.77
2023-02-06T09:52:38.942Z,12.52
2023-02-06T09:55:05.212Z,12.62
2023-02-06T09:57:31.500Z,12.36
2023-02-06T09:59:57.986Z,14.03
2023-02-06T10:02:24.261Z,14.67
2023-02-06T10:04:50.521Z,12.66
2023-02-06T10:07:16.833Z,14.43
2023-02-06T10:09:43.194Z,12.77
2023-02-06T10:12:09.471Z,12.21
2023-02-06T10:14:35.752Z,13.38
2023-02-06T10:17:02.026Z,12.34
2023-02-06T10:19:28.326Z,12.69
2023-02-06T10:21:54.585Z,12.70
2023-02-06T10:24:20.877Z,12.65
2023-02-06T10:26:50.185Z,12.51
2023-02-06T10:29:16.939Z,11.85
2023-02-06T10:31:43.297Z,12.06
2023-02-06T10:34:09.662Z,11.95
2023-02-06T10:36:35.916Z,12.44
2023-02-06T10:39:02.181Z,12.26
2023-02-06T10:41:28.465Z,11.86
2023-02-06T10:43:54.769Z,12.09
2023-02-06T10:46:21.119Z,11.93
2023-02-06T10:48:47.405Z,13.36
2023-02-06T10:51:13.673Z,16.53
2023-02-06T10:53:39.927Z,12.35
2023-02-06T10:56:06.205Z,11.54
2023-02-06T10:58:32.472Z,11.47
2023-02-06T11:00:58.803Z,11.54
2023-02-06T11:03:25.213Z,11.30
2023-02-06T11:05:51.475Z,10.97
2023-02-06T11:08:17.794Z,11.35
2023-02-06T11:10:44.089Z,11.09
2023-02-06T11:13:10.353Z,10.93
2023-02-06T11:15:36.896Z,11.18
2023-02-06T11:18:03.396Z,11.06
2023-02-06T11:20:29.689Z,11.42
2023-02-06T11:22:55.942Z,11.12
2023-02-06T11:25:22.269Z,11.36
2023-02-06T11:27:48.548Z,10.89
2023-02-06T11:30:14.877Z,11.16
2023-02-06T11:32:41.146Z,10.85
2023-02-06T11:35:07.448Z,11.19
2023-02-06T11:37:33.727Z,10.86
2023-02-06T11:39:59.987Z,11.30
2023-02-06T11:42:26.254Z,11.22
2023-02-06T11:44:52.505Z,12.01
2023-02-06T11:47:18.775Z,14.20
2023-02-06T11:49:45.064Z,11.40
2023-02-06T11:52:11.347Z,11.58
2023-02-06T11:54:37.625Z,10.71
2023-02-06T11:57:03.957Z,10.76
2023-02-06T11:59:30.274Z,10.79
2023-02-06T12:01:56.598Z,10.37
2023-02-06T12:04:22.882Z,10.94
2023-02-06T12:06:49.148Z,11.07
2023-02-06T12:09:15.425Z,10.88
2023-02-06T12:11:41.681Z,10.68
2023-02-06T12:14:07.960Z,10.70
2023-02-06T12:16:34.255Z,10.88
2023-02-06T12:19:00.638Z,11.13
2023-02-06T12:21:26.964Z,11.49
2023-02-06T12:23:53.212Z,11.62
2023-02-06T12:26:19.454Z,11.59
2023-02-06T12:28:45.727Z,11.55
2023-02-06T12:31:12.018Z,11.91
2023-02-06T12:33:38.336Z,11.98
2023-02-06T12:36:04.608Z,11.18
2023-02-06T12:38:30.856Z,11.40
2023-02-06T12:40:57.131Z,11.54
2023-02-06T12:43:23.445Z,12.14
2023-02-06T12:45:49.829Z,12.89
2023-02-06T12:48:16.236Z,11.56
2023-02-06T12:50:42.524Z,12.01
2023-02-06T12:53:08.796Z,11.70
2023-02-06T12:55:35.428Z,11.57
2023-02-06T12:58:01.845Z,11.01
2023-02-06T13:00:28.117Z,11.50
2023-02-06T13:02:54.460Z,11.29
2023-02-06T13:05:20.733Z,11.39
2023-02-06T13:07:50.104Z,11.85
2023-02-06T13:10:16.456Z,12.01
2023-02-06T13:12:42.709Z,12.01
2023-02-06T13:15:08.994Z,11.60
2023-02-06T13:17:35.270Z,11.46
2023-02-06T13:20:01.549Z,11.86
2023-02-06T13:22:27.819Z,11.81
2023-02-06T13:24:54.109Z,11.82
2023-02-06T13:27:20.362Z,11.88
2023-02-06T13:29:46.656Z,12.42
2023-02-06T13:32:12.906Z,11.53
2023-02-06T13:34:39.167Z,11.96
2023-02-06T13:37:05.448Z,11.74
2023-02-06T13:39:31.733Z,11.30
2023-02-06T13:41:58.020Z,11.44
2023-02-06T13:44:24.287Z,11.76
2023-02-06T13:46:50.549Z,11.53
2023-02-06T13:49:16.811Z,11.51
2023-02-06T13:51:43.063Z,11.86
2023-02-06T13:54:09.315Z,11.72
2023-02-06T13:56:35.724Z,11.87
2023-02-06T13:59:02.025Z,11.59
2023-02-06T14:01:28.310Z,11.99
2023-02-06T14:03:54.600Z,11.42
2023-02-06T14:06:20.851Z,12.01
2023-02-06T14:08:47.137Z,11.84
2023-02-06T14:11:13.405Z,11.45
2023-02-06T14:13:39.662Z,11.56
2023-02-06T14:16:06.009Z,11.81
2023-02-06T14:18:32.291Z,11.71
2023-02-06T14:20:58.574Z,11.86
2023-02-06T14:23:25.562Z,12.24
2023-02-06T14:25:51.885Z,12.33
2023-02-06T14:28:18.209Z,11.93
2023-02-06T14:30:44.616Z,12.51
2023-02-06T14:33:10.908Z,12.03
2023-02-06T14:35:37.478Z,12.38
2023-02-06T14:38:04.090Z,12.48
2023-02-06T14:40:30.351Z,12.37
2023-02-06T14:42:56.617Z,12.79
2023-02-06T14:45:22.885Z,12.56
2023-02-06T14:47:49.145Z,11.97
2023-02-06T14:50:15.390Z,12.07
2023-02-06T14:52:41.703Z,11.83
2023-02-06T14:55:07.985Z,11.71
2023-02-06T14:57:34.266Z,11.93
2023-02-06T15:00:00.580Z,12.52
2023-02-06T15:02:26.878Z,11.97
2023-02-06T15:04:53.150Z,11.95
2023-02-06T15:07:19.402Z,12.02
2023-02-06T15:09:45.684Z,11.82
2023-02-06T15:12:11.964Z,12.05
2023-02-06T15:14:38.217Z,11.60
2023-02-06T15:17:04.481Z,12.20
2023-02-06T15:19:30.783Z,11.52
2023-02-06T15:21:57.107Z,12.11
2023-02-06T15:24:23.382Z,11.68
2023-02-06T15:26:49.648Z,11.46
2023-02-06T15:29:15.979Z,11.55
2023-02-06T15:31:42.327Z,11.61
2023-02-06T15:34:08.608Z,11.50
2023-02-06T15:36:34.908Z,11.99
2023-02-06T15:39:01.196Z,11.63
2023-02-06T15:41:27.485Z,11.75
2023-02-06T15:43:53.734Z,12.41
2023-02-06T15:46:19.977Z,11.88
2023-02-06T15:48:46.262Z,11.42
2023-02-06T15:51:12.500Z,10.90
2023-02-06T15:53:38.820Z,11.10
2023-02-06T15:56:05.075Z,11.10
2023-02-06T15:58:31.331Z,10.91
2023-02-06T16:00:57.673Z,11.04
2023-02-06T16:03:24.026Z,11.06
2023-02-06T16:05:50.287Z,11.11
2023-02-06T16:08:16.554Z,10.64
2023-02-06T16:10:42.830Z,10.69
2023-02-06T16:13:09.093Z,10.52
2023-02-06T16:15:35.453Z,10.45
2023-02-06T16:18:01.740Z,10.68
2023-02-06T16:20:28.032Z,10.86
2023-02-06T16:22:54.315Z,10.92
2023-02-06T16:25:20.604Z,10.16
2023-02-06T16:27:47.067Z,10.28
2023-02-06T16:30:13.502Z,9.99
2023-02-06T16:32:39.750Z,9.93
2023-02-06T16:35:06.024Z,9.94
2023-02-06T16:37:32.292Z,9.94
2023-02-06T16:39:58.690Z,9.79
2023-02-06T16:42:24.965Z,9.65
2023-02-06T16:44:51.214Z,9.85
2023-02-06T16:47:17.466Z,9.70
2023-02-06T16:49:43.721Z,9.82
2023-02-06T16:52:10.023Z,9.20
2023-02-06T16:54:36.280Z,9.22
2023-02-06T16:57:02.561Z,9.67
2023-02-06T16:59:28.905Z,9.98
2023-02-06T17:01:55.158Z,10.20
2023-02-06T17:04:21.408Z,9.44
2023-02-06T17:06:47.650Z,9.30
2023-02-06T17:09:13.914Z,8.87
2023-02-06T17:11:40.160Z,8.91
2023-02-06T17:14:06.443Z,8.86
2023-02-06T17:16:32.707Z,9.05
2023-02-06T17:18:58.993Z,9.01
2023-02-06T17:21:25.281Z,8.87
2023-02-06T17:23:51.571Z,8.81
2023-02-06T17:26:17.857Z,8.74
2023-02-06T17:28:44.183Z,8.21
2023-02-06T17:31:10.595Z,8.48
2023-02-06T17:33:36.944Z,8.38
2023-02-06T17:36:03.227Z,8.02
2023-02-06T17:38:29.559Z,8.06
2023-02-06T17:40:55.827Z,8.10
2023-02-06T17:43:22.094Z,7.99
2023-02-06T17:45:48.366Z,8.33
2023-02-06T17:48:14.637Z,8.55
2023-02-06T17:50:40.912Z,8.12
2023-02-06T17:53:07.186Z,8.00
2023-02-06T17:55:33.430Z,7.64
2023-02-06T17:57:59.766Z,7.86
2023-02-06T18:00:26.111Z,8.25
2023-02-06T18:02:52.478Z,8.08
2023-02-06T18:05:18.775Z,7.65
2023-02-06T18:07:45.045Z,7.63
2023-02-06T18:10:11.368Z,7.94
2023-02-06T18:12:37.619Z,9.48
2023-02-06T18:15:03.917Z,9.76
2023-02-06T18:17:30.305Z,8.02
2023-02-06T18:19:56.590Z,7.51
2023-02-06T18:22:22.859Z,7.97
2023-02-06T18:24:49.128Z,7.84
2023-02-06T18:27:15.566Z,7.74
2023-02-06T18:29:49.284Z,7.85
2023-02-06T18:32:16.227Z,8.54
2023-02-06T18:34:42.470Z,8.44
2023-02-06T18:37:08.743Z,8.68
2023-02-06T18:39:35.075Z,9.10
2023-02-06T18:42:01.350Z,8.93
2023-02-06T18:44:27.596Z,9.05
2023-02-06T18:46:53.907Z,9.51
2023-02-06T18:49:20.218Z,9.20
2023-02-06T18:51:46.500Z,9.68
2023-02-06T18:54:12.771Z,10.17
2023-02-06T18:56:39.025Z,10.70
2023-02-06T18:59:05.282Z,10.52
2023-02-06T19:01:31.675Z,10.36
2023-02-06T19:03:58.062Z,9.55
2023-02-06T19:06:24.441Z,9.78
2023-02-06T19:08:50.726Z,9.52
2023-02-06T19:11:16.990Z,9.55
2023-02-06T19:13:43.340Z,9.31
2023-02-06T19:16:09.629Z,9.88
2023-02-06T19:18:40.247Z,10.61
2023-02-06T19:21:07.918Z,10.80
2023-02-06T19:23:34.186Z,11.84
2023-02-06T19:26:00.557Z,11.33
2023-02-06T19:28:26.835Z,11.51
2023-02-06T19:30:53.164Z,11.97
2023-02-06T19:33:19.504Z,12.32
2023-02-06T19:35:45.768Z,11.75
2023-02-06T19:38:12.028Z,11.08
2023-02-06T19:40:38.573Z,10.43
2023-02-06T19:43:05.119Z,10.14
2023-02-06T19:45:31.403Z,9.93
2023-02-06T19:47:57.655Z,10.75
2023-02-06T19:50:23.924Z,10.67
2023-02-06T19:52:50.181Z,10.55
2023-02-06T19:55:16.446Z,10.44
2023-02-06T19:57:42.823Z,10.75
2023-02-06T20:00:09.220Z,10.31
2023-02-06T20:02:35.491Z,10.58
2023-02-06T20:05:02.759Z,10.21
2023-02-06T20:07:29.274Z,10.24
2023-02-06T20:09:55.589Z,10.27
2023-02-06T20:12:21.855Z,10.38
2023-02-06T20:14:48.120Z,10.31
2023-02-06T20:17:14.387Z,10.57
2023-02-06T20:19:40.641Z,10.25
2023-02-06T20:22:06.912Z,10.39
2023-02-06T20:24:33.168Z,10.40
2023-02-06T20:26:59.450Z,10.90
2023-02-06T20:29:25.740Z,10.53
2023-02-06T20:31:52.132Z,11.51
2023-02-06T20:34:18.530Z,13.14
2023-02-06T20:36:44.862Z,11.05
2023-02-06T20:39:11.104Z,10.90
2023-02-06T20:41:37.394Z,11.24
2023-02-06T20:44:03.693Z,10.95
2023-02-06T20:46:30.016Z,11.39
2023-02-06T20:48:56.626Z,11.90
2023-02-06T20:51:22.904Z,12.17
2023-02-06T20:53:49.217Z,11.96
2023-02-06T20:56:15.536Z,12.00
2023-02-06T20:58:41.839Z,12.29
2023-02-06T21:01:08.187Z,12.79
2023-02-06T21:03:34.470Z,13.02
2023-02-06T21:06:00.767Z,13.21
2023-02-06T21:08:27.035Z,12.73
2023-02-06T21:10:53.319Z,13.40
2023-02-06T21:13:19.589Z,13.79
2023-02-06T21:15:45.912Z,13.60
2023-02-06T21:18:12.239Z,13.51
2023-02-06T21:20:38.677Z,13.29
2023-02-06T21:23:05.085Z,13.80
2023-02-06T21:25:31.338Z,14.57
2023-02-06T21:27:57.613Z,13.94
2023-02-06T21:30:23.925Z,14.50
2023-02-06T21:32:50.209Z,13.72
2023-02-06T21:35:16.490Z,12.87
2023-02-06T21:37:42.761Z,13.46
2023-02-06T21:40:09.016Z,13.32
2023-02-06T21:42:35.305Z,12.61
2023-02-06T21:45:01.593Z,12.61
2023-02-06T21:47:27.908Z,12.66
2023-02-06T21:49:54.192Z,12.50
2023-02-06T21:52:20.467Z,12.06
2023-02-06T21:54:46.758Z,12.89
2023-02-06T21:57:13.024Z,12.39
2023-02-06T21:59:39.296Z,12.19
2023-02-06T22:02:05.563Z,12.40
2023-02-06T22:04:31.826Z,12.58
2023-02-06T22:06:58.145Z,12.27
2023-02-06T22:09:24.408Z,12.50
2023-02-06T22:11:50.693Z,13.11
2023-02-06T22:14:17.020Z,12.90
2023-02-06T22:16:43.344Z,12.70
2023-02-06T22:19:09.623Z,12.75
2023-02-06T22:21:35.891Z,13.46
2023-02-06T22:24:02.154Z,14.43
2023-02-06T22:26:28.423Z,14.61
2023-02-06T22:28:54.689Z,15.55
2023-02-06T22:31:21.033Z,14.39
2023-02-06T22:33:47.417Z,15.18
2023-02-06T22:36:13.684Z,15.59
2023-02-06T22:38:39.938Z,15.20
2023-02-06T22:41:06.208Z,16.05
2023-02-06T22:43:32.478Z,16.44
2023-02-06T22:45:58.753Z,15.75
2023-02-06T22:48:25.024Z,16.00
2023-02-06T22:50:51.278Z,16.57
2023-02-06T22:53:17.548Z,17.14
2023-02-06T22:55:43.795Z,17.08
2023-02-06T22:58:10.062Z,16.84
2023-02-06T23:00:36.386Z,16.67
2023-02-06T23:03:02.651Z,16.64
2023-02-06T23:05:28.897Z,16.50
2023-02-06T23:07:55.177Z,16.70
2023-02-06T23:10:21.466Z,16.27
2023-02-06T23:12:47.718Z,15.87
2023-02-06T23:15:13.983Z,15.46
2023-02-06T23:17:40.261Z,15.17
2023-02-06T23:20:06.528Z,15.20
2023-02-06T23:22:32.786Z,14.55
2023-02-06T23:24:59.057Z,13.87
2023-02-06T23:27:25.310Z,13.89
2023-02-06T23:29:51.562Z,14.09
2023-02-06T23:32:17.820Z,13.82
2023-02-06T23:34:44.089Z,14.69
2023-02-06T23:37:10.363Z,14.05
2023-02-06T23:39:36.606Z,14.00
2023-02-06T23:42:02.882Z,12.95
2023-02-06T23:44:29.153Z,12.85
2023-02-06T23:46:55.417Z,12.12
2023-02-06T23:49:21.691Z,12.37
2023-02-06T23:51:47.975Z,11.98
2023-02-06T23:54:14.242Z,12.35
2023-02-06T23:56:40.502Z,12.12
2023-02-06T23:59:06.832Z,11.78
